Language selection

Weather shortcuts

Rankin - northern half: Past 24 Hour Conditions

 

Moosonee Airport

05:00 AM EST 25 February 2024
Disclaimer

This table is a summary of hourly weather conditions for the past 24 hours.
Please note that these observations might not always be representative of weather conditions over their associated marine area.

Date / Time
(EST)
Wind(knots) Conditions Visibility(km) Pressure(kPa) Air tempC) Relative humidity(%) Dew pointC) Wind Chill
25 February 2024
5:00 SW 15 Cloudy 16 99.5 -3 67 -8 -10
4:00 SSW 15 gusts 20 Cloudy 16 99.5 -4 73 -8 -11
3:00 SSW 17 Light Snow 16 99.6 -4 80 -7 -12
2:00 SSW 18 Cloudy 16 99.6 -4 69 -9 -12
1:00 SW 15 gusts 22 Cloudy 16 99.7 -4 67 -9 -11
0:00 SSW 16 Cloudy 16 99.7 -4 68 -9 -12
24 February 2024
23:00 SSW 12 gusts 17 Cloudy 16 99.8 -5 54 -13 -12
22:00 SSW 12 gusts 19 Cloudy 16 99.9 -6 48 -15 -13
21:00 S 12 gusts 17 Cloudy 16 100.0 -7 46 -16 -14
20:00 S 13 Cloudy 16 100.1 -8 51 -16 -16
19:00 S 13 Cloudy 16 100.2 -8 52 -16 -17
18:00 S 12 gusts 18 Cloudy 16 100.3 -9 52 -17 -16
17:00 SSE 14 gusts 20 Cloudy 16 100.5 -9 56 -16 -18
16:00 S 14 Mainly Sunny 16 100.6 -10 56 -17 -19
15:00 S 12 Sunny 16 100.8 -11 56 -18 -20
14:00 S 10 Sunny 16 101.0 -13 58 -19 -21
13:00 SSW 8 Sunny 16 101.1 -15 58 -21 -23
12:00 SSW 9 Sunny 16 101.2 -17 60 -22 -25
11:00 SSW 11 Sunny 16 101.4 -19 65 -24 -29
10:00 S 3 Sunny 16 101.5 -22 71 -25 -26
9:00 S 3 Sunny 16 101.5 -26 72 -30 -31
8:00 S 2 Sunny 16 101.6 -29 77 -32 -34
7:00 S 2 Clear 16 101.6 -30 77 -33 -35
6:00 calm Clear 16 101.6 -30 76 -33 *
5:00 calm Clear 16 101.6 -31 74 -34 *

Zoom-in to make a selection

Map of Hudson - Hudson Bay marine weather areas Arviat Airport Baker Lake Airport Chesterfield Inlet Airport Coral Harbour Airport Rankin Inlet Airport Sanikiluaq Airport Whale Cove Airport Kinngait (Cape Dorset Airport) Iqaluit Airport Wager Bay Kimmirut Airport Churchill Airport Fort Severn Airport Peawanuck Airport Moosonee Airport Eastmain Airport La Grande Rivière Airport Waskaganish Airport Wemindji Airport Akulivik Airport Inukjuak Airport Ivujivik Airport Kuujjuarapik Airport Puvirnituq Airport Umiujaq Airport Aupaluk Airport Kangiqsujuaq Airport Kangirsuk Airport Kangiqsualujjuaq Airport Kuujjuaq Airport Quaqtaq Airport Salluit Airport Tasiujaq Airport Cape Kakkiviak
Legend:
buoy Buoy
land station Land Station

Hudson - Hudson Bay Area

Another Region

Date modified: